Apiliotis — SYVY — position and weather

sailwx.info

Track history (hours):
 
Tides and Currents Weather Stations Pressure Air Temp Water Temp Dewpoint Dewpoint Depression Visibility Wind Speed Wind Dir Waves Ship Positions

Apiliotis

Last reported at 2016-Feb-12 23:32 UTC. Time now 2016-Feb-13 02:37 UTC.
Position N 37°05' E 025°07'.

Length 79 m; draft 4.5 m.

Type: Ship. MMSI: 240438000.

Date/timePositionNaut miles runAvg speedWind from/ knotsBaromVisibWave heightAir tempDewpointWater temp
2016-Feb-12 23:32N 37°05' E 025°07'1010.1
2016-Feb-12 22:33N 37°10' E 025°19'4 4.1
2016-Feb-12 21:33N 37°06' E 025°22'0 0.4
2016-Feb-12 20:33N 37°06' E 025°22'0 0.0
2016-Feb-12 19:33N 37°06' E 025°22'0 0.1
2016-Feb-12 18:33N 37°06' E 025°22'21 1.5
2016-Feb-12 04:29N 36°49' E 025°36'11 0.9
2016-Feb-11 16:30N 36°50' E 025°49'6 5.6
2016-Feb-11 15:27N 36°45' E 025°46'8 9.0
2016-Feb-11 14:31N 36°42' E 025°56'9 9.1
2016-Feb-11 13:31N 36°40' E 026°06'44 1.2
2016-Feb-10 01:33N 37°22' E 025°51'1212.1
2016-Feb-10 00:33N 37°21' E 025°35'1111.1
2016-Feb-09 23:33N 37°20' E 025°22'1211.5
2016-Feb-09 22:33N 37°23' E 025°08'9 3.0
2016-Feb-09 19:24N 37°26' E 024°56'0 0.0
2016-Feb-09 17:31N 37°26' E 024°56'0 0.0
2016-Feb-09 16:32N 37°26' E 024°56'0 0.0
2016-Feb-09 15:16N 37°26' E 024°56'0 0.0
2016-Feb-09 14:33N 37°26' E 024°56'0 0.0
2016-Feb-09 13:17N 37°26' E 024°56'5 7.3
2016-Feb-09 12:33N 37°29' E 025°02'7 6.8
2016-Feb-09 11:33N 37°32' E 025°09'0 0.0
2016-Feb-09 10:33N 37°32' E 025°09'0 0.0
2016-Feb-09 09:34N 37°32' E 025°09'9 8.6
2016-Feb-09 08:33N 37°35' E 024°59'54 2.3
2016-Feb-08 09:05N 37°36' E 023°51'611.8
2016-Feb-08 08:33N 37°39' E 023°44'1211.9
2016-Feb-08 07:33N 37°49' E 023°37'1110.5
2016-Feb-08 06:33N 37°59' E 023°33'3 2.5
2016-Feb-08 05:33N 38°02' E 023°31'0 0.1
2016-Feb-08 04:33N 38°02' E 023°31'0 0.0
2016-Feb-08 03:33N 38°02' E 023°31'0 0.0
2016-Feb-08 02:33N 38°02' E 023°31'0 0.0
2016-Feb-08 01:33N 38°02' E 023°31'0 0.0
2016-Feb-08 00:33N 38°02' E 023°31'0 0.0
2016-Feb-07 23:33N 38°02' E 023°31'0 0.0
2016-Feb-07 22:33N 38°02' E 023°31'0 0.0
2016-Feb-07 21:33N 38°02' E 023°31'0 0.0
2016-Feb-07 20:33N 38°02' E 023°31'0 0.0
2016-Feb-07 19:33N 38°02' E 023°31'0 0.0
2016-Feb-07 18:33N 38°02' E 023°31'0 0.0
2016-Feb-07 17:33N 38°02' E 023°31'0 0.1
2016-Feb-07 16:33N 38°02' E 023°31'0 0.0
2016-Feb-07 15:33N 38°02' E 023°31'0 0.0
2016-Feb-07 14:33N 38°02' E 023°31'0 0.0
2016-Feb-07 13:34N 38°02' E 023°31'1 1.3
2016-Feb-07 12:33N 38°01' E 023°33'2 2.4
2016-Feb-07 11:33N 38°02' E 023°36'0 0.0
2016-Feb-07 10:34N 38°02' E 023°36'0 0.0
2016-Feb-07 09:33N 38°02' E 023°36'0 0.0
2016-Feb-07 08:33N 38°02' E 023°36'0 0.4
2016-Feb-07 07:33N 38°01' E 023°35'3 2.5
2016-Feb-07 06:33N 38°01' E 023°32'0 0.0
2016-Feb-07 05:34N 38°01' E 023°32'0 0.0
2016-Feb-07 04:34N 38°01' E 023°32'0 0.0
2016-Feb-07 03:33N 38°01' E 023°32'0 0.0
2016-Feb-07 02:34N 38°01' E 023°32'0 0.0
2016-Feb-07 01:33N 38°01' E 023°32'0 0.0
2016-Feb-07 00:33N 38°01' E 023°32'0 0.0
2016-Feb-06 23:33N 38°01' E 023°32'0 0.0
2016-Feb-06 22:33N 38°01' E 023°32'0 0.0
2016-Feb-06 21:33N 38°01' E 023°32'0 0.0
2016-Feb-06 20:33N 38°01' E 023°32'0 0.0
2016-Feb-06 19:33N 38°01' E 023°32'0 0.0
2016-Feb-06 18:33N 38°01' E 023°32'0 0.0
2016-Feb-06 17:33N 38°01' E 023°32'0 0.0
2016-Feb-06 16:33N 38°01' E 023°32'0 0.0
2016-Feb-06 15:33N 38°01' E 023°32'0 0.0
2016-Feb-06 14:33N 38°01' E 023°32'0 0.0
2016-Feb-06 13:33N 38°01' E 023°32'0 0.0
2016-Feb-06 12:33N 38°01' E 023°32'0 0.0
2016-Feb-06 11:33N 38°01' E 023°32'0 0.0
2016-Feb-06 10:33N 38°01' E 023°32'0 0.0
2016-Feb-06 09:33N 38°01' E 023°32'0 0.0
2016-Feb-06 08:33N 38°01' E 023°32'0 0.0
2016-Feb-06 07:33N 38°01' E 023°32'0 0.0
2016-Feb-06 06:33N 38°01' E 023°32'0 0.0
2016-Feb-06 05:33N 38°01' E 023°32'0 0.0
2016-Feb-06 04:33N 38°01' E 023°32'0 0.0
2016-Feb-06 03:34N 38°01' E 023°32'0 0.0
2016-Feb-06 02:33N 38°01' E 023°32'0 0.0
2016-Feb-06 01:31N 38°01' E 023°32'0 0.0
2016-Feb-06 00:33N 38°01' E 023°32'0 0.0
2016-Feb-05 23:33N 38°01' E 023°32'0 0.0
2016-Feb-05 22:33N 38°01' E 023°32'0 0.0
2016-Feb-05 21:33N 38°01' E 023°32'0 0.0
2016-Feb-05 20:33N 38°01' E 023°32'0 0.0
2016-Feb-05 19:34N 38°01' E 023°32'0 0.0
2016-Feb-05 18:33N 38°01' E 023°32'0 0.0
2016-Feb-05 17:33N 38°01' E 023°32'0 0.0
2016-Feb-05 16:33N 38°01' E 023°32'0 0.0
2016-Feb-05 15:33N 38°01' E 023°32'0 0.0
2016-Feb-05 14:33N 38°01' E 023°32'0 0.0
2016-Feb-05 13:33N 38°01' E 023°32'1 0.6
2016-Feb-05 12:33N 38°02' E 023°32'0 0.0
2016-Feb-05 11:33N 38°02' E 023°32'0 0.0
2016-Feb-05 10:33N 38°02' E 023°32'0 0.0
2016-Feb-05 09:33N 38°02' E 023°32'0 0.0
2016-Feb-05 08:33N 38°02' E 023°32'0 0.0
2016-Feb-05 07:33N 38°02' E 023°32'0 0.0
2016-Feb-05 06:33N 38°02' E 023°32'5 4.9
2016-Feb-05 05:33N 37°57' E 023°34'8 8.1
2016-Feb-05 04:33N 37°49' E 023°33'2 2.1
2016-Feb-05 03:33N 37°47' E 023°32'0 0.0
2016-Feb-05 02:33N 37°47' E 023°32'0 0.0
2016-Feb-05 01:33N 37°47' E 023°32'0 0.0
2016-Feb-05 00:33N 37°47' E 023°32'0 0.0
2016-Feb-04 23:33N 37°47' E 023°32'0 0.0
2016-Feb-04 22:33N 37°47' E 023°32'0 0.1
2016-Feb-04 21:33N 37°47' E 023°32'0 0.3
2016-Feb-04 20:33N 37°47' E 023°32'8 8.3
2016-Feb-04 19:34N 37°45' E 023°42'1010.5
2016-Feb-04 18:33N 37°37' E 023°51'139 5.9
2016-Feb-03 19:06N 35°22' E 024°29'0 0.0
2016-Feb-03 09:33N 35°22' E 024°29'0 0.0
2016-Feb-03 06:20N 35°22' E 024°29'0 0.0
2016-Feb-03 04:28N 35°22' E 024°29'0 0.0
2016-Feb-03 02:33N 35°22' E 024°29'  
Track history (hours):
 
Tides and Currents Weather Stations Pressure Air Temp Water Temp Dewpoint Dewpoint Depression Visibility Wind Speed Wind Dir Waves Ship Positions

Apiliotis

Last reported at 2016-Feb-12 23:32 UTC. Time now 2016-Feb-13 02:37 UTC.
Position N 37°05' E 025°07'.

Length 79 m; draft 4.5 m.

Type: Ship. MMSI: 240438000.

Date/timePositionNaut miles runAvg speedWind from/ knotsBaromVisibWave heightAir tempDewpointWater temp
2016-Feb-12 23:32N 37°05' E 025°07'1010.1
2016-Feb-12 22:33N 37°10' E 025°19'4 4.1
2016-Feb-12 21:33N 37°06' E 025°22'0 0.4
2016-Feb-12 20:33N 37°06' E 025°22'0 0.0
2016-Feb-12 19:33N 37°06' E 025°22'0 0.1
2016-Feb-12 18:33N 37°06' E 025°22'21 1.5
2016-Feb-12 04:29N 36°49' E 025°36'11 0.9
2016-Feb-11 16:30N 36°50' E 025°49'6 5.6
2016-Feb-11 15:27N 36°45' E 025°46'8 9.0
2016-Feb-11 14:31N 36°42' E 025°56'9 9.1
2016-Feb-11 13:31N 36°40' E 026°06'44 1.2
2016-Feb-10 01:33N 37°22' E 025°51'1212.1
2016-Feb-10 00:33N 37°21' E 025°35'1111.1
2016-Feb-09 23:33N 37°20' E 025°22'1211.5
2016-Feb-09 22:33N 37°23' E 025°08'9 3.0
2016-Feb-09 19:24N 37°26' E 024°56'0 0.0
2016-Feb-09 17:31N 37°26' E 024°56'0 0.0
2016-Feb-09 16:32N 37°26' E 024°56'0 0.0
2016-Feb-09 15:16N 37°26' E 024°56'0 0.0
2016-Feb-09 14:33N 37°26' E 024°56'0 0.0
2016-Feb-09 13:17N 37°26' E 024°56'5 7.3
2016-Feb-09 12:33N 37°29' E 025°02'7 6.8
2016-Feb-09 11:33N 37°32' E 025°09'0 0.0
2016-Feb-09 10:33N 37°32' E 025°09'0 0.0
2016-Feb-09 09:34N 37°32' E 025°09'9 8.6
2016-Feb-09 08:33N 37°35' E 024°59'54 2.3
2016-Feb-08 09:05N 37°36' E 023°51'611.8
2016-Feb-08 08:33N 37°39' E 023°44'1211.9
2016-Feb-08 07:33N 37°49' E 023°37'1110.5
2016-Feb-08 06:33N 37°59' E 023°33'3 2.5
2016-Feb-08 05:33N 38°02' E 023°31'0 0.1
2016-Feb-08 04:33N 38°02' E 023°31'0 0.0
2016-Feb-08 03:33N 38°02' E 023°31'0 0.0
2016-Feb-08 02:33N 38°02' E 023°31'0 0.0
2016-Feb-08 01:33N 38°02' E 023°31'0 0.0
2016-Feb-08 00:33N 38°02' E 023°31'0 0.0
2016-Feb-07 23:33N 38°02' E 023°31'0 0.0
2016-Feb-07 22:33N 38°02' E 023°31'0 0.0
2016-Feb-07 21:33N 38°02' E 023°31'0 0.0
2016-Feb-07 20:33N 38°02' E 023°31'0 0.0
2016-Feb-07 19:33N 38°02' E 023°31'0 0.0
2016-Feb-07 18:33N 38°02' E 023°31'0 0.0
2016-Feb-07 17:33N 38°02' E 023°31'0 0.1
2016-Feb-07 16:33N 38°02' E 023°31'0 0.0
2016-Feb-07 15:33N 38°02' E 023°31'0 0.0
2016-Feb-07 14:33N 38°02' E 023°31'0 0.0
2016-Feb-07 13:34N 38°02' E 023°31'1 1.3
2016-Feb-07 12:33N 38°01' E 023°33'2 2.4
2016-Feb-07 11:33N 38°02' E 023°36'0 0.0
2016-Feb-07 10:34N 38°02' E 023°36'0 0.0
2016-Feb-07 09:33N 38°02' E 023°36'0 0.0
2016-Feb-07 08:33N 38°02' E 023°36'0 0.4
2016-Feb-07 07:33N 38°01' E 023°35'3 2.5
2016-Feb-07 06:33N 38°01' E 023°32'0 0.0
2016-Feb-07 05:34N 38°01' E 023°32'0 0.0
2016-Feb-07 04:34N 38°01' E 023°32'0 0.0
2016-Feb-07 03:33N 38°01' E 023°32'0 0.0
2016-Feb-07 02:34N 38°01' E 023°32'0 0.0
2016-Feb-07 01:33N 38°01' E 023°32'0 0.0
2016-Feb-07 00:33N 38°01' E 023°32'0 0.0
2016-Feb-06 23:33N 38°01' E 023°32'0 0.0
2016-Feb-06 22:33N 38°01' E 023°32'0 0.0
2016-Feb-06 21:33N 38°01' E 023°32'0 0.0
2016-Feb-06 20:33N 38°01' E 023°32'0 0.0
2016-Feb-06 19:33N 38°01' E 023°32'0 0.0
2016-Feb-06 18:33N 38°01' E 023°32'0 0.0
2016-Feb-06 17:33N 38°01' E 023°32'0 0.0
2016-Feb-06 16:33N 38°01' E 023°32'0 0.0
2016-Feb-06 15:33N 38°01' E 023°32'0 0.0
2016-Feb-06 14:33N 38°01' E 023°32'0 0.0
2016-Feb-06 13:33N 38°01' E 023°32'0 0.0
2016-Feb-06 12:33N 38°01' E 023°32'0 0.0
2016-Feb-06 11:33N 38°01' E 023°32'0 0.0
2016-Feb-06 10:33N 38°01' E 023°32'0 0.0
2016-Feb-06 09:33N 38°01' E 023°32'0 0.0
2016-Feb-06 08:33N 38°01' E 023°32'0 0.0
2016-Feb-06 07:33N 38°01' E 023°32'0 0.0
2016-Feb-06 06:33N 38°01' E 023°32'0 0.0
2016-Feb-06 05:33N 38°01' E 023°32'0 0.0
2016-Feb-06 04:33N 38°01' E 023°32'0 0.0
2016-Feb-06 03:34N 38°01' E 023°32'0 0.0
2016-Feb-06 02:33N 38°01' E 023°32'0 0.0
2016-Feb-06 01:31N 38°01' E 023°32'0 0.0
2016-Feb-06 00:33N 38°01' E 023°32'0 0.0
2016-Feb-05 23:33N 38°01' E 023°32'0 0.0
2016-Feb-05 22:33N 38°01' E 023°32'0 0.0
2016-Feb-05 21:33N 38°01' E 023°32'0 0.0
2016-Feb-05 20:33N 38°01' E 023°32'0 0.0
2016-Feb-05 19:34N 38°01' E 023°32'0 0.0
2016-Feb-05 18:33N 38°01' E 023°32'0 0.0
2016-Feb-05 17:33N 38°01' E 023°32'0 0.0
2016-Feb-05 16:33N 38°01' E 023°32'0 0.0
2016-Feb-05 15:33N 38°01' E 023°32'0 0.0
2016-Feb-05 14:33N 38°01' E 023°32'0 0.0
2016-Feb-05 13:33N 38°01' E 023°32'1 0.6
2016-Feb-05 12:33N 38°02' E 023°32'0 0.0
2016-Feb-05 11:33N 38°02' E 023°32'0 0.0
2016-Feb-05 10:33N 38°02' E 023°32'0 0.0
2016-Feb-05 09:33N 38°02' E 023°32'0 0.0
2016-Feb-05 08:33N 38°02' E 023°32'0 0.0
2016-Feb-05 07:33N 38°02' E 023°32'0 0.0
2016-Feb-05 06:33N 38°02' E 023°32'5 4.9
2016-Feb-05 05:33N 37°57' E 023°34'8 8.1
2016-Feb-05 04:33N 37°49' E 023°33'2 2.1
2016-Feb-05 03:33N 37°47' E 023°32'0 0.0
2016-Feb-05 02:33N 37°47' E 023°32'0 0.0
2016-Feb-05 01:33N 37°47' E 023°32'0 0.0
2016-Feb-05 00:33N 37°47' E 023°32'0 0.0
2016-Feb-04 23:33N 37°47' E 023°32'0 0.0
2016-Feb-04 22:33N 37°47' E 023°32'0 0.1
2016-Feb-04 21:33N 37°47' E 023°32'0 0.3
2016-Feb-04 20:33N 37°47' E 023°32'8 8.3
2016-Feb-04 19:34N 37°45' E 023°42'1010.5
2016-Feb-04 18:33N 37°37' E 023°51'139 5.9
2016-Feb-03 19:06N 35°22' E 024°29'0 0.0
2016-Feb-03 09:33N 35°22' E 024°29'0 0.0
2016-Feb-03 06:20N 35°22' E 024°29'0 0.0
2016-Feb-03 04:28N 35°22' E 024°29'0 0.0
2016-Feb-03 02:33N 35°22' E 024°29'  

Dump ship's entire track history